Lyons, Colorado
Current Conditions -  °F | °C
As of 11:53 PM on Saturday 25 Oct 2014 (Local Time) from KLMO Reporting Station
Clear Clear  
Wind Chill: 50°   Ceiling: Unl
Heat Index: 50°   Visibility: 10mi
Dew Point: 29°   Wind: 3mph
Humidity: 45%   Direction: 230°SW
Pressure: 29.98"   Gusts: NA
Location:  40.22°N, 105.27°W
Report Text: KLMO 260553Z AUTO 23003KT 10SM CLR 10/M01 A2998 RMK AO2 T01001015
Loading
Personal Weather Stations






























Interactive Weather Map
Tropical Storm Tracking
New forecast layout! Learn more

10-Day Weather Forecast

Advertisements
Track Severe Weather on mobile